sensor_id;sensor_type;location;lat;lon;timestamp;temperature;humidity
50989;DHT22;37008;52.210;21.112;2023-02-13T00:01:30;3.70;99.90
50989;DHT22;37008;52.210;21.112;2023-02-13T00:03:55;3.80;99.90
50989;DHT22;37008;52.210;21.112;2023-02-13T00:06:21;3.80;99.90
50989;DHT22;37008;52.210;21.112;2023-02-13T00:08:47;3.80;99.90
50989;DHT22;37008;52.210;21.112;2023-02-13T00:11:13;3.80;99.90
50989;DHT22;37008;52.210;21.112;2023-02-13T00:13:38;3.90;99.90
50989;DHT22;37008;52.210;21.112;2023-02-13T00:16:04;3.90;99.90
50989;DHT22;37008;52.210;21.112;2023-02-13T00:18:34;3.90;99.90
50989;DHT22;37008;52.210;21.112;2023-02-13T00:21:04;3.90;99.90
50989;DHT22;37008;52.210;21.112;2023-02-13T00:23:31;3.90;99.90
50989;DHT22;37008;52.210;21.112;2023-02-13T00:25:58;3.90;99.90
50989;DHT22;37008;52.210;21.112;2023-02-13T00:28:24;3.90;99.90
50989;DHT22;37008;52.210;21.112;2023-02-13T00:30:50;3.90;99.90
50989;DHT22;37008;52.210;21.112;2023-02-13T00:33:15;4.00;99.90
50989;DHT22;37008;52.210;21.112;2023-02-13T00:35:41;4.00;99.90
50989;DHT22;37008;52.210;21.112;2023-02-13T00:38:07;4.00;99.90
50989;DHT22;37008;52.210;21.112;2023-02-13T00:40:32;4.00;99.90
50989;DHT22;37008;52.210;21.112;2023-02-13T00:42:58;4.00;99.90
50989;DHT22;37008;52.210;21.112;2023-02-13T00:45:24;4.00;99.90
50989;DHT22;37008;52.210;21.112;2023-02-13T00:47:50;4.00;99.90
50989;DHT22;37008;52.210;21.112;2023-02-13T00:50:15;4.00;99.90
50989;DHT22;37008;52.210;21.112;2023-02-13T00:52:41;4.00;99.90
50989;DHT22;37008;52.210;21.112;2023-02-13T00:55:07;4.00;99.90
50989;DHT22;37008;52.210;21.112;2023-02-13T00:57:33;4.00;99.90
50989;DHT22;37008;52.210;21.112;2023-02-13T00:59:58;4.00;99.90
50989;DHT22;37008;52.210;21.112;2023-02-13T01:02:24;4.00;99.90
50989;DHT22;37008;52.210;21.112;2023-02-13T01:04:50;4.00;99.90
50989;DHT22;37008;52.210;21.112;2023-02-13T01:07:15;4.00;99.90
50989;DHT22;37008;52.210;21.112;2023-02-13T01:09:41;4.10;99.90
50989;DHT22;37008;52.210;21.112;2023-02-13T01:12:07;4.10;99.90
50989;DHT22;37008;52.210;21.112;2023-02-13T01:14:32;4.10;99.90
50989;DHT22;37008;52.210;21.112;2023-02-13T01:16:58;4.10;99.90
50989;DHT22;37008;52.210;21.112;2023-02-13T01:19:24;4.10;99.90
50989;DHT22;37008;52.210;21.112;2023-02-13T01:21:49;4.10;99.90
50989;DHT22;37008;52.210;21.112;2023-02-13T01:24:15;4.10;99.90
50989;DHT22;37008;52.210;21.112;2023-02-13T01:26:41;4.10;99.90
50989;DHT22;37008;52.210;21.112;2023-02-13T01:29:06;4.10;99.90
50989;DHT22;37008;52.210;21.112;2023-02-13T01:31:32;4.10;99.90
50989;DHT22;37008;52.210;21.112;2023-02-13T01:33:58;4.10;99.90
50989;DHT22;37008;52.210;21.112;2023-02-13T01:36:25;4.10;99.90
50989;DHT22;37008;52.210;21.112;2023-02-13T01:38:55;4.10;99.90
50989;DHT22;37008;52.210;21.112;2023-02-13T01:41:22;4.10;99.90
50989;DHT22;37008;52.210;21.112;2023-02-13T01:46:23;4.20;99.90
50989;DHT22;37008;52.210;21.112;2023-02-13T01:48:52;4.20;99.90
50989;DHT22;37008;52.210;21.112;2023-02-13T01:51:26;4.10;99.90
50989;DHT22;37008;52.210;21.112;2023-02-13T01:53:57;4.20;99.90
50989;DHT22;37008;52.210;21.112;2023-02-13T01:56:35;4.20;99.90
50989;DHT22;37008;52.210;21.112;2023-02-13T01:59:07;4.10;99.90
50989;DHT22;37008;52.210;21.112;2023-02-13T02:01:33;4.10;99.90
50989;DHT22;37008;52.210;21.112;2023-02-13T02:04:01;4.20;99.90
50989;DHT22;37008;52.210;21.112;2023-02-13T02:06:37;4.20;99.90
50989;DHT22;37008;52.210;21.112;2023-02-13T02:09:09;4.20;99.90
50989;DHT22;37008;52.210;21.112;2023-02-13T02:11:58;4.20;99.90
50989;DHT22;37008;52.210;21.112;2023-02-13T02:14:26;4.20;99.90
50989;DHT22;37008;52.210;21.112;2023-02-13T02:16:51;4.20;99.90
50989;DHT22;37008;52.210;21.112;2023-02-13T02:19:25;4.30;99.90
50989;DHT22;37008;52.210;21.112;2023-02-13T02:22:40;4.30;99.90
50989;DHT22;37008;52.210;21.112;2023-02-13T02:28:01;4.30;99.90
50989;DHT22;37008;52.210;21.112;2023-02-13T02:30:59;4.30;99.90
50989;DHT22;37008;52.210;21.112;2023-02-13T02:33:38;4.30;99.90
50989;DHT22;37008;52.210;21.112;2023-02-13T02:36:13;4.30;99.90
50989;DHT22;37008;52.210;21.112;2023-02-13T02:44:44;4.30;99.90
50989;DHT22;37008;52.210;21.112;2023-02-13T02:47:37;4.30;99.90
50989;DHT22;37008;52.210;21.112;2023-02-13T02:50:45;4.30;99.90
50989;DHT22;37008;52.210;21.112;2023-02-13T02:56:33;4.30;99.90
50989;DHT22;37008;52.210;21.112;2023-02-13T02:59:09;4.30;99.90
50989;DHT22;37008;52.210;21.112;2023-02-13T03:01:55;4.30;99.90
50989;DHT22;37008;52.210;21.112;2023-02-13T03:04:43;4.40;99.90
50989;DHT22;37008;52.210;21.112;2023-02-13T03:07:28;4.30;99.90
50989;DHT22;37008;52.210;21.112;2023-02-13T03:10:30;4.30;99.90
50989;DHT22;37008;52.210;21.112;2023-02-13T03:13:30;4.30;99.90
50989;DHT22;37008;52.210;21.112;2023-02-13T03:15:59;4.30;99.90
50989;DHT22;37008;52.210;21.112;2023-02-13T03:18:46;4.30;99.90
50989;DHT22;37008;52.210;21.112;2023-02-13T03:21:58;4.30;99.90
50989;DHT22;37008;52.210;21.112;2023-02-13T03:28:11;4.30;99.90
50989;DHT22;37008;52.210;21.112;2023-02-13T03:33:48;4.30;99.90
50989;DHT22;37008;52.210;21.112;2023-02-13T03:37:06;4.30;99.90
50989;DHT22;37008;52.210;21.112;2023-02-13T03:44:52;4.30;99.90
50989;DHT22;37008;52.210;21.112;2023-02-13T03:47:39;4.30;99.90
50989;DHT22;37008;52.210;21.112;2023-02-13T03:50:06;4.30;99.90
50989;DHT22;37008;52.210;21.112;2023-02-13T03:52:57;4.30;99.90
50989;DHT22;37008;52.210;21.112;2023-02-13T03:55:33;4.30;99.90
50989;DHT22;37008;52.210;21.112;2023-02-13T03:58:22;4.30;99.90
50989;DHT22;37008;52.210;21.112;2023-02-13T04:01:08;4.30;99.90
50989;DHT22;37008;52.210;21.112;2023-02-13T04:04:07;4.30;99.90
50989;DHT22;37008;52.210;21.112;2023-02-13T04:06:53;4.30;99.90
50989;DHT22;37008;52.210;21.112;2023-02-13T04:09:21;4.30;99.90
50989;DHT22;37008;52.210;21.112;2023-02-13T04:15:03;4.30;99.90
50989;DHT22;37008;52.210;21.112;2023-02-13T04:17:39;4.30;99.90
50989;DHT22;37008;52.210;21.112;2023-02-13T04:20:06;4.40;99.90
50989;DHT22;37008;52.210;21.112;2023-02-13T04:22:32;4.40;99.90
50989;DHT22;37008;52.210;21.112;2023-02-13T04:24:58;4.40;99.90
50989;DHT22;37008;52.210;21.112;2023-02-13T04:27:25;4.40;99.90
50989;DHT22;37008;52.210;21.112;2023-02-13T04:29:51;4.40;99.90
50989;DHT22;37008;52.210;21.112;2023-02-13T04:32:17;4.40;99.90
50989;DHT22;37008;52.210;21.112;2023-02-13T04:34:42;4.40;99.90
50989;DHT22;37008;52.210;21.112;2023-02-13T04:37:08;4.40;99.90
50989;DHT22;37008;52.210;21.112;2023-02-13T04:39:34;4.40;99.90
50989;DHT22;37008;52.210;21.112;2023-02-13T04:41:59;4.40;99.90
50989;DHT22;37008;52.210;21.112;2023-02-13T04:44:25;4.50;99.90
50989;DHT22;37008;52.210;21.112;2023-02-13T04:46:50;4.50;99.90
50989;DHT22;37008;52.210;21.112;2023-02-13T04:49:16;4.50;99.90
50989;DHT22;37008;52.210;21.112;2023-02-13T04:51:41;4.50;99.90
50989;DHT22;37008;52.210;21.112;2023-02-13T04:54:07;4.40;99.90
50989;DHT22;37008;52.210;21.112;2023-02-13T04:56:33;4.50;99.90
50989;DHT22;37008;52.210;21.112;2023-02-13T04:58:58;4.50;99.90
50989;DHT22;37008;52.210;21.112;2023-02-13T05:01:24;4.60;99.90
50989;DHT22;37008;52.210;21.112;2023-02-13T05:03:49;4.50;99.90
50989;DHT22;37008;52.210;21.112;2023-02-13T05:06:15;4.50;99.90
50989;DHT22;37008;52.210;21.112;2023-02-13T05:08:40;4.50;99.90
50989;DHT22;37008;52.210;21.112;2023-02-13T05:11:06;4.50;99.90
50989;DHT22;37008;52.210;21.112;2023-02-13T05:13:32;4.60;99.90
50989;DHT22;37008;52.210;21.112;2023-02-13T05:15:58;4.60;99.90
50989;DHT22;37008;52.210;21.112;2023-02-13T05:18:23;4.50;99.90
50989;DHT22;37008;52.210;21.112;2023-02-13T05:20:49;4.60;99.90
50989;DHT22;37008;52.210;21.112;2023-02-13T05:23:34;4.60;99.90
50989;DHT22;37008;52.210;21.112;2023-02-13T05:26:00;4.60;99.90
50989;DHT22;37008;52.210;21.112;2023-02-13T05:28:26;4.60;99.90
50989;DHT22;37008;52.210;21.112;2023-02-13T05:31:10;4.60;99.90
50989;DHT22;37008;52.210;21.112;2023-02-13T05:33:35;4.60;99.90
50989;DHT22;37008;52.210;21.112;2023-02-13T05:36:01;4.60;99.90
50989;DHT22;37008;52.210;21.112;2023-02-13T05:38:26;4.60;99.90
50989;DHT22;37008;52.210;21.112;2023-02-13T05:40:52;4.60;99.90
50989;DHT22;37008;52.210;21.112;2023-02-13T05:43:18;4.60;99.90
50989;DHT22;37008;52.210;21.112;2023-02-13T05:45:44;4.50;99.90
50989;DHT22;37008;52.210;21.112;2023-02-13T05:48:09;4.60;99.90
50989;DHT22;37008;52.210;21.112;2023-02-13T05:50:35;4.50;99.90
50989;DHT22;37008;52.210;21.112;2023-02-13T05:53:01;4.50;99.90
50989;DHT22;37008;52.210;21.112;2023-02-13T05:55:26;4.60;99.90
50989;DHT22;37008;52.210;21.112;2023-02-13T05:57:56;4.60;99.90
50989;DHT22;37008;52.210;21.112;2023-02-13T06:00:22;4.60;99.90
50989;DHT22;37008;52.210;21.112;2023-02-13T06:02:48;4.60;99.90
50989;DHT22;37008;52.210;21.112;2023-02-13T06:05:13;4.60;99.90
50989;DHT22;37008;52.210;21.112;2023-02-13T06:07:39;4.60;99.90
50989;DHT22;37008;52.210;21.112;2023-02-13T06:10:05;4.60;99.90
50989;DHT22;37008;52.210;21.112;2023-02-13T06:12:30;4.60;99.90
50989;DHT22;37008;52.210;21.112;2023-02-13T06:14:56;4.70;99.90
50989;DHT22;37008;52.210;21.112;2023-02-13T06:17:22;4.60;99.90
50989;DHT22;37008;52.210;21.112;2023-02-13T06:19:47;4.70;99.90
50989;DHT22;37008;52.210;21.112;2023-02-13T06:22:13;4.70;99.90
50989;DHT22;37008;52.210;21.112;2023-02-13T06:24:38;4.60;99.90
50989;DHT22;37008;52.210;21.112;2023-02-13T06:27:04;4.70;99.90
50989;DHT22;37008;52.210;21.112;2023-02-13T06:29:29;4.70;99.90
50989;DHT22;37008;52.210;21.112;2023-02-13T06:31:57;4.70;99.90
50989;DHT22;37008;52.210;21.112;2023-02-13T06:34:22;4.70;99.90
50989;DHT22;37008;52.210;21.112;2023-02-13T06:36:48;4.70;99.90
50989;DHT22;37008;52.210;21.112;2023-02-13T06:39:14;4.70;99.90
50989;DHT22;37008;52.210;21.112;2023-02-13T06:41:39;4.70;99.90
50989;DHT22;37008;52.210;21.112;2023-02-13T06:44:05;4.70;99.90
50989;DHT22;37008;52.210;21.112;2023-02-13T06:46:32;4.70;99.90
50989;DHT22;37008;52.210;21.112;2023-02-13T06:48:57;4.70;99.90
50989;DHT22;37008;52.210;21.112;2023-02-13T06:51:23;4.70;99.90
50989;DHT22;37008;52.210;21.112;2023-02-13T06:53:49;4.70;99.90
50989;DHT22;37008;52.210;21.112;2023-02-13T06:56:14;4.70;99.90
50989;DHT22;37008;52.210;21.112;2023-02-13T06:58:40;4.70;99.90
50989;DHT22;37008;52.210;21.112;2023-02-13T07:01:06;4.70;99.90
50989;DHT22;37008;52.210;21.112;2023-02-13T07:03:31;4.70;99.90
50989;DHT22;37008;52.210;21.112;2023-02-13T07:05:57;4.70;99.90
50989;DHT22;37008;52.210;21.112;2023-02-13T07:08:22;4.70;99.90
50989;DHT22;37008;52.210;21.112;2023-02-13T07:10:48;4.60;99.90
50989;DHT22;37008;52.210;21.112;2023-02-13T07:13:14;4.60;99.90
50989;DHT22;37008;52.210;21.112;2023-02-13T07:15:39;4.60;99.90
50989;DHT22;37008;52.210;21.112;2023-02-13T07:18:05;4.70;99.90
50989;DHT22;37008;52.210;21.112;2023-02-13T07:20:31;4.70;99.90
50989;DHT22;37008;52.210;21.112;2023-02-13T07:22:58;4.60;99.90
50989;DHT22;37008;52.210;21.112;2023-02-13T07:25:24;4.70;99.90
50989;DHT22;37008;52.210;21.112;2023-02-13T07:27:50;4.70;99.90
50989;DHT22;37008;52.210;21.112;2023-02-13T07:30:15;4.80;99.90
50989;DHT22;37008;52.210;21.112;2023-02-13T07:32:41;4.80;99.90
50989;DHT22;37008;52.210;21.112;2023-02-13T07:35:07;4.80;99.90
50989;DHT22;37008;52.210;21.112;2023-02-13T07:37:32;4.90;99.90
50989;DHT22;37008;52.210;21.112;2023-02-13T07:39:58;4.90;99.90
50989;DHT22;37008;52.210;21.112;2023-02-13T07:42:24;5.00;99.90
50989;DHT22;37008;52.210;21.112;2023-02-13T07:44:49;5.00;99.90
50989;DHT22;37008;52.210;21.112;2023-02-13T07:47:15;5.10;99.90
50989;DHT22;37008;52.210;21.112;2023-02-13T07:49:40;5.20;99.90
50989;DHT22;37008;52.210;21.112;2023-02-13T07:52:06;5.20;99.90
50989;DHT22;37008;52.210;21.112;2023-02-13T07:54:32;5.30;99.90
50989;DHT22;37008;52.210;21.112;2023-02-13T07:56:58;5.40;99.90
50989;DHT22;37008;52.210;21.112;2023-02-13T07:59:24;5.50;99.90
50989;DHT22;37008;52.210;21.112;2023-02-13T08:01:49;5.60;99.90
50989;DHT22;37008;52.210;21.112;2023-02-13T08:04:15;5.70;99.90
50989;DHT22;37008;52.210;21.112;2023-02-13T08:06:42;5.70;99.90
50989;DHT22;37008;52.210;21.112;2023-02-13T08:09:16;5.70;99.90
50989;DHT22;37008;52.210;21.112;2023-02-13T08:12:01;5.70;99.90
50989;DHT22;37008;52.210;21.112;2023-02-13T08:14:27;5.70;99.90
50989;DHT22;37008;52.210;21.112;2023-02-13T08:16:53;5.50;99.90
50989;DHT22;37008;52.210;21.112;2023-02-13T08:19:19;5.40;99.90
50989;DHT22;37008;52.210;21.112;2023-02-13T08:21:44;5.40;99.90
50989;DHT22;37008;52.210;21.112;2023-02-13T08:24:11;5.50;99.90
50989;DHT22;37008;52.210;21.112;2023-02-13T08:26:37;5.40;99.90
50989;DHT22;37008;52.210;21.112;2023-02-13T08:29:04;5.30;99.90
50989;DHT22;37008;52.210;21.112;2023-02-13T08:31:29;5.30;99.90
50989;DHT22;37008;52.210;21.112;2023-02-13T08:33:56;5.30;99.90
50989;DHT22;37008;52.210;21.112;2023-02-13T08:36:22;5.40;99.90
50989;DHT22;37008;52.210;21.112;2023-02-13T08:38:48;5.40;99.90
50989;DHT22;37008;52.210;21.112;2023-02-13T08:41:14;5.40;99.90
50989;DHT22;37008;52.210;21.112;2023-02-13T08:43:42;5.50;99.90
50989;DHT22;37008;52.210;21.112;2023-02-13T08:46:08;5.50;99.90
50989;DHT22;37008;52.210;21.112;2023-02-13T08:48:34;5.60;99.90
50989;DHT22;37008;52.210;21.112;2023-02-13T08:50:59;5.70;99.90
50989;DHT22;37008;52.210;21.112;2023-02-13T08:53:29;5.80;99.90
50989;DHT22;37008;52.210;21.112;2023-02-13T08:55:56;5.80;99.90
50989;DHT22;37008;52.210;21.112;2023-02-13T08:58:22;5.90;99.90
50989;DHT22;37008;52.210;21.112;2023-02-13T09:00:48;6.00;99.90
50989;DHT22;37008;52.210;21.112;2023-02-13T09:03:14;6.10;99.90
50989;DHT22;37008;52.210;21.112;2023-02-13T09:05:40;6.20;99.90
50989;DHT22;37008;52.210;21.112;2023-02-13T09:08:06;6.30;99.90
50989;DHT22;37008;52.210;21.112;2023-02-13T09:10:33;6.30;99.90
50989;DHT22;37008;52.210;21.112;2023-02-13T09:12:59;6.30;99.90
50989;DHT22;37008;52.210;21.112;2023-02-13T09:15:28;6.40;99.90
50989;DHT22;37008;52.210;21.112;2023-02-13T09:17:54;6.30;99.90
50989;DHT22;37008;52.210;21.112;2023-02-13T09:20:19;6.20;99.90
50989;DHT22;37008;52.210;21.112;2023-02-13T09:22:45;6.10;99.90
50989;DHT22;37008;52.210;21.112;2023-02-13T09:25:11;6.00;99.90
50989;DHT22;37008;52.210;21.112;2023-02-13T09:27:36;6.00;99.90
50989;DHT22;37008;52.210;21.112;2023-02-13T09:30:05;6.00;99.90
50989;DHT22;37008;52.210;21.112;2023-02-13T09:32:31;6.00;99.90
50989;DHT22;37008;52.210;21.112;2023-02-13T09:34:56;6.00;99.90
50989;DHT22;37008;52.210;21.112;2023-02-13T09:37:22;6.00;99.90
50989;DHT22;37008;52.210;21.112;2023-02-13T09:39:47;6.10;99.90
50989;DHT22;37008;52.210;21.112;2023-02-13T09:42:26;6.00;99.90
50989;DHT22;37008;52.210;21.112;2023-02-13T09:44:54;6.00;99.90
50989;DHT22;37008;52.210;21.112;2023-02-13T09:47:31;5.90;99.90
50989;DHT22;37008;52.210;21.112;2023-02-13T09:52:33;5.90;99.90
50989;DHT22;37008;52.210;21.112;2023-02-13T09:55:00;5.90;99.90
50989;DHT22;37008;52.210;21.112;2023-02-13T10:00:38;6.00;99.90
50989;DHT22;37008;52.210;21.112;2023-02-13T10:05:56;6.00;99.90
50989;DHT22;37008;52.210;21.112;2023-02-13T10:08:41;6.00;99.90
50989;DHT22;37008;52.210;21.112;2023-02-13T10:17:30;6.00;99.90
50989;DHT22;37008;52.210;21.112;2023-02-13T10:20:06;6.00;99.90
50989;DHT22;37008;52.210;21.112;2023-02-13T10:22:46;6.10;99.90
50989;DHT22;37008;52.210;21.112;2023-02-13T10:25:21;6.10;99.90
50989;DHT22;37008;52.210;21.112;2023-02-13T10:31:17;5.90;99.90
50989;DHT22;37008;52.210;21.112;2023-02-13T10:33:52;5.90;99.90
50989;DHT22;37008;52.210;21.112;2023-02-13T10:36:24;5.90;99.90
50989;DHT22;37008;52.210;21.112;2023-02-13T10:38:59;5.80;99.90
50989;DHT22;37008;52.210;21.112;2023-02-13T10:41:48;5.80;99.90
50989;DHT22;37008;52.210;21.112;2023-02-13T10:53:00;5.70;99.90
50989;DHT22;37008;52.210;21.112;2023-02-13T10:58:11;5.60;99.90
50989;DHT22;37008;52.210;21.112;2023-02-13T11:00:54;5.60;99.90
50989;DHT22;37008;52.210;21.112;2023-02-13T11:03:23;5.50;99.90
50989;DHT22;37008;52.210;21.112;2023-02-13T11:05:51;5.50;99.90
50989;DHT22;37008;52.210;21.112;2023-02-13T11:08:31;5.50;99.90
50989;DHT22;37008;52.210;21.112;2023-02-13T11:10:57;5.50;99.90
50989;DHT22;37008;52.210;21.112;2023-02-13T11:13:24;5.50;99.90
50989;DHT22;37008;52.210;21.112;2023-02-13T11:18:56;5.60;99.90
50989;DHT22;37008;52.210;21.112;2023-02-13T11:21:34;5.60;99.90
50989;DHT22;37008;52.210;21.112;2023-02-13T11:24:17;5.60;99.90
50989;DHT22;37008;52.210;21.112;2023-02-13T11:26:44;5.70;99.90
50989;DHT22;37008;52.210;21.112;2023-02-13T11:29:28;5.70;99.90
50989;DHT22;37008;52.210;21.112;2023-02-13T11:34:40;5.80;99.90
50989;DHT22;37008;52.210;21.112;2023-02-13T11:39:41;5.80;99.90
50989;DHT22;37008;52.210;21.112;2023-02-13T11:45:01;5.90;99.90
50989;DHT22;37008;52.210;21.112;2023-02-13T11:47:33;5.80;99.90
50989;DHT22;37008;52.210;21.112;2023-02-13T11:50:03;5.80;99.90
50989;DHT22;37008;52.210;21.112;2023-02-13T11:52:34;5.70;99.90
50989;DHT22;37008;52.210;21.112;2023-02-13T11:55:23;5.70;99.90
50989;DHT22;37008;52.210;21.112;2023-02-13T11:57:59;5.60;99.90
50989;DHT22;37008;52.210;21.112;2023-02-13T12:00:34;5.60;99.90
50989;DHT22;37008;52.210;21.112;2023-02-13T12:03:29;5.60;99.90
50989;DHT22;37008;52.210;21.112;2023-02-13T12:08:26;5.60;99.90
50989;DHT22;37008;52.210;21.112;2023-02-13T12:10:53;5.60;99.90
50989;DHT22;37008;52.210;21.112;2023-02-13T12:15:50;5.50;99.90
50989;DHT22;37008;52.210;21.112;2023-02-13T12:18:30;5.60;99.90
50989;DHT22;37008;52.210;21.112;2023-02-13T12:23:42;5.60;99.90
50989;DHT22;37008;52.210;21.112;2023-02-13T12:37:22;5.80;99.90
50989;DHT22;37008;52.210;21.112;2023-02-13T12:40:44;5.80;99.90
50989;DHT22;37008;52.210;21.112;2023-02-13T12:42:55;5.90;99.90
50989;DHT22;37008;52.210;21.112;2023-02-13T12:59:29;6.20;99.90
50989;DHT22;37008;52.210;21.112;2023-02-13T13:02:32;6.20;99.90
50989;DHT22;37008;52.210;21.112;2023-02-13T13:14:09;5.90;99.90
50989;DHT22;37008;52.210;21.112;2023-02-13T13:22:17;5.90;99.90
50989;DHT22;37008;52.210;21.112;2023-02-13T13:24:54;6.00;99.90
50989;DHT22;37008;52.210;21.112;2023-02-13T13:27:31;6.10;99.90
50989;DHT22;37008;52.210;21.112;2023-02-13T13:30:26;6.10;99.90
50989;DHT22;37008;52.210;21.112;2023-02-13T13:33:01;6.20;99.90
50989;DHT22;37008;52.210;21.112;2023-02-13T13:35:28;6.20;99.90
50989;DHT22;37008;52.210;21.112;2023-02-13T13:38:17;6.20;99.90
50989;DHT22;37008;52.210;21.112;2023-02-13T13:51:20;6.30;99.90
50989;DHT22;37008;52.210;21.112;2023-02-13T13:59:19;6.30;99.90
50989;DHT22;37008;52.210;21.112;2023-02-13T14:07:39;6.30;99.90
50989;DHT22;37008;52.210;21.112;2023-02-13T14:12:49;6.10;99.90
50989;DHT22;37008;52.210;21.112;2023-02-13T14:26:18;5.80;99.90
50989;DHT22;37008;52.210;21.112;2023-02-13T14:31:33;5.80;99.90
50989;DHT22;37008;52.210;21.112;2023-02-13T14:34:05;5.80;99.90
50989;DHT22;37008;52.210;21.112;2023-02-13T14:36:44;5.80;99.90
50989;DHT22;37008;52.210;21.112;2023-02-13T14:39:30;5.80;99.90
50989;DHT22;37008;52.210;21.112;2023-02-13T14:41:59;5.80;99.90
50989;DHT22;37008;52.210;21.112;2023-02-13T14:44:53;5.80;99.90
50989;DHT22;37008;52.210;21.112;2023-02-13T14:49:43;5.80;99.90
50989;DHT22;37008;52.210;21.112;2023-02-13T14:52:18;5.80;99.90
50989;DHT22;37008;52.210;21.112;2023-02-13T14:54:53;5.80;99.90
50989;DHT22;37008;52.210;21.112;2023-02-13T14:57:29;5.90;99.90
50989;DHT22;37008;52.210;21.112;2023-02-13T15:00:45;5.90;99.90
50989;DHT22;37008;52.210;21.112;2023-02-13T15:02:48;5.80;99.90
50989;DHT22;37008;52.210;21.112;2023-02-13T15:05:18;5.90;99.90
50989;DHT22;37008;52.210;21.112;2023-02-13T15:07:50;5.80;99.90
50989;DHT22;37008;52.210;21.112;2023-02-13T15:10:39;5.80;99.90
50989;DHT22;37008;52.210;21.112;2023-02-13T15:13:14;5.80;99.90
50989;DHT22;37008;52.210;21.112;2023-02-13T15:15:40;5.80;99.90
50989;DHT22;37008;52.210;21.112;2023-02-13T15:18:18;5.80;99.90
50989;DHT22;37008;52.210;21.112;2023-02-13T15:20:45;5.90;99.90
50989;DHT22;37008;52.210;21.112;2023-02-13T15:23:22;5.90;99.90
50989;DHT22;37008;52.210;21.112;2023-02-13T15:26:03;5.90;99.90
50989;DHT22;37008;52.210;21.112;2023-02-13T15:28:30;5.90;99.90
50989;DHT22;37008;52.210;21.112;2023-02-13T15:31:03;5.80;99.90
50989;DHT22;37008;52.210;21.112;2023-02-13T15:33:41;5.80;99.90
50989;DHT22;37008;52.210;21.112;2023-02-13T15:36:19;5.80;99.90
50989;DHT22;37008;52.210;21.112;2023-02-13T15:38:45;5.80;99.90
50989;DHT22;37008;52.210;21.112;2023-02-13T15:41:13;5.80;99.90
50989;DHT22;37008;52.210;21.112;2023-02-13T15:43:43;6.00;99.90
50989;DHT22;37008;52.210;21.112;2023-02-13T15:46:30;5.80;99.90
50989;DHT22;37008;52.210;21.112;2023-02-13T15:49:06;5.80;99.90
50989;DHT22;37008;52.210;21.112;2023-02-13T15:51:32;5.80;99.90
50989;DHT22;37008;52.210;21.112;2023-02-13T15:54:20;5.80;99.90
50989;DHT22;37008;52.210;21.112;2023-02-13T15:56:47;5.70;99.90
50989;DHT22;37008;52.210;21.112;2023-02-13T15:59:14;5.70;99.90
50989;DHT22;37008;52.210;21.112;2023-02-13T16:01:41;5.70;99.90
50989;DHT22;37008;52.210;21.112;2023-02-13T16:04:13;5.70;99.90
50989;DHT22;37008;52.210;21.112;2023-02-13T16:06:41;5.70;99.90
50989;DHT22;37008;52.210;21.112;2023-02-13T16:11:53;5.70;99.90
50989;DHT22;37008;52.210;21.112;2023-02-13T16:14:22;5.70;99.90
50989;DHT22;37008;52.210;21.112;2023-02-13T16:22:26;5.70;99.90
50989;DHT22;37008;52.210;21.112;2023-02-13T16:24:56;5.70;99.90
50989;DHT22;37008;52.210;21.112;2023-02-13T16:27:26;5.70;99.90
50989;DHT22;37008;52.210;21.112;2023-02-13T16:30:00;5.70;99.90
50989;DHT22;37008;52.210;21.112;2023-02-13T16:32:32;5.70;99.90
50989;DHT22;37008;52.210;21.112;2023-02-13T16:37:59;5.70;99.90
50989;DHT22;37008;52.210;21.112;2023-02-13T16:48:35;5.70;99.90
50989;DHT22;37008;52.210;21.112;2023-02-13T16:51:01;5.70;99.90
50989;DHT22;37008;52.210;21.112;2023-02-13T16:53:27;5.70;99.90
50989;DHT22;37008;52.210;21.112;2023-02-13T16:56:07;5.70;99.90
50989;DHT22;37008;52.210;21.112;2023-02-13T16:58:33;5.70;99.90
50989;DHT22;37008;52.210;21.112;2023-02-13T17:01:00;5.80;99.90
50989;DHT22;37008;52.210;21.112;2023-02-13T17:03:27;5.70;99.90
50989;DHT22;37008;52.210;21.112;2023-02-13T17:05:52;5.70;99.90
50989;DHT22;37008;52.210;21.112;2023-02-13T17:08:20;5.70;99.90
50989;DHT22;37008;52.210;21.112;2023-02-13T17:11:07;5.70;99.90
50989;DHT22;37008;52.210;21.112;2023-02-13T17:13:33;5.70;99.90
50989;DHT22;37008;52.210;21.112;2023-02-13T17:15:59;5.70;99.90
50989;DHT22;37008;52.210;21.112;2023-02-13T17:18:25;5.70;99.90
50989;DHT22;37008;52.210;21.112;2023-02-13T17:20:51;5.70;99.90
50989;DHT22;37008;52.210;21.112;2023-02-13T17:23:19;5.70;99.90
50989;DHT22;37008;52.210;21.112;2023-02-13T17:25:47;5.70;99.90
50989;DHT22;37008;52.210;21.112;2023-02-13T17:28:16;5.70;99.90
50989;DHT22;37008;52.210;21.112;2023-02-13T17:30:44;5.70;99.90
50989;DHT22;37008;52.210;21.112;2023-02-13T17:35:50;5.70;99.90
50989;DHT22;37008;52.210;21.112;2023-02-13T17:38:16;5.70;99.90
50989;DHT22;37008;52.210;21.112;2023-02-13T17:40:43;5.70;99.90
50989;DHT22;37008;52.210;21.112;2023-02-13T17:43:14;5.70;99.90
50989;DHT22;37008;52.210;21.112;2023-02-13T17:45:41;5.70;99.90
50989;DHT22;37008;52.210;21.112;2023-02-13T17:48:06;5.70;99.90
50989;DHT22;37008;52.210;21.112;2023-02-13T17:50:33;5.70;99.90
50989;DHT22;37008;52.210;21.112;2023-02-13T17:53:05;5.70;99.90
50989;DHT22;37008;52.210;21.112;2023-02-13T17:55:35;5.70;99.90
50989;DHT22;37008;52.210;21.112;2023-02-13T17:58:01;5.70;99.90
50989;DHT22;37008;52.210;21.112;2023-02-13T18:00:29;5.70;99.90
50989;DHT22;37008;52.210;21.112;2023-02-13T18:02:56;5.70;99.90
50989;DHT22;37008;52.210;21.112;2023-02-13T18:05:22;5.70;99.90
50989;DHT22;37008;52.210;21.112;2023-02-13T18:07:48;5.70;99.90
50989;DHT22;37008;52.210;21.112;2023-02-13T18:10:21;5.70;99.90
50989;DHT22;37008;52.210;21.112;2023-02-13T18:12:48;5.70;99.90
50989;DHT22;37008;52.210;21.112;2023-02-13T18:15:14;5.70;99.90
50989;DHT22;37008;52.210;21.112;2023-02-13T18:17:40;5.60;99.90
50989;DHT22;37008;52.210;21.112;2023-02-13T18:20:08;5.60;99.90
50989;DHT22;37008;52.210;21.112;2023-02-13T18:22:35;5.60;99.90
50989;DHT22;37008;52.210;21.112;2023-02-13T18:25:01;5.60;99.90
50989;DHT22;37008;52.210;21.112;2023-02-13T18:27:27;5.60;99.90
50989;DHT22;37008;52.210;21.112;2023-02-13T18:29:53;5.60;99.90
50989;DHT22;37008;52.210;21.112;2023-02-13T18:32:19;5.60;99.90
50989;DHT22;37008;52.210;21.112;2023-02-13T18:34:45;5.60;99.90
50989;DHT22;37008;52.210;21.112;2023-02-13T18:37:11;5.60;99.90
50989;DHT22;37008;52.210;21.112;2023-02-13T18:39:37;5.50;99.90
50989;DHT22;37008;52.210;21.112;2023-02-13T18:42:03;5.60;99.90
50989;DHT22;37008;52.210;21.112;2023-02-13T18:44:28;5.50;99.90
50989;DHT22;37008;52.210;21.112;2023-02-13T18:46:55;5.60;99.90
50989;DHT22;37008;52.210;21.112;2023-02-13T18:49:21;5.60;99.90
50989;DHT22;37008;52.210;21.112;2023-02-13T18:51:46;5.60;99.90